Terminal Aerodrome Forecast
Issued by NWS Cleveland, OH

Home | Current Version | Previous Version | Graphics & Text | Print | Product List | Glossary On
Versions: 1 2 3 4 5 6 7 8 9 10 11 12 13 14 15 16
000
FTUS41 KCLE 170549
TAFYNG
TAF
KYNG 170549Z 1706/1806 VRB03KT P6SM OVC035
     FM171000 18003KT P6SM OVC030
     FM171500 18008KT P6SM BKN030 OVC200
     FM172000 20008KT P6SM SCT030 OVC080
     FM180000 22008KT P6SM VCSH OVC030=

USA.gov is the U.S. government's official web portal to all federal, state and local government web resources and services.